Time;durP1;ratioP1;P1;durP2;ratioP2;P2;SDS_P1;SDS_P2;PMS_P1;PMS_P2;Temp;Humidity;BMP_temperature;BMP_pressure;BME280_temperature;BME280_humidity;BME280_pressure;Samples;Min_cycle;Max_cycle;Signal;HPM_P1;HPM_P2
2022/06/07 00:01:02;;;;;;;;;;;20.00;68.80;;;;;;5071385;28;1270;-69
2022/06/07 00:03:27;;;;;;;;;;;20.00;68.80;;;;;;5054939;28;1897;-69
2022/06/07 00:05:53;;;;;;;;;;;20.00;68.80;;;;;;5072874;28;806;-69
2022/06/07 00:08:18;;;;;;;;;;;20.00;68.80;;;;;;5069506;28;1129;-69
2022/06/07 00:10:44;;;;;;;;;;;20.00;68.80;;;;;;5052346;28;1208;-69
2022/06/07 00:13:11;;;;;;;;;;;20.00;68.80;;;;;;5051637;28;1021;-69
2022/06/07 00:15:36;;;;;;;;;;;20.00;68.80;;;;;;5052838;28;1058;-69
2022/06/07 00:18:03;;;;;;;;;;;20.00;68.80;;;;;;5051535;28;1326;-69
2022/06/07 00:20:28;;;;;;;;;;;20.00;68.80;;;;;;5054330;28;1276;-69
2022/06/07 00:22:55;;;;;;;;;;;20.00;68.80;;;;;;5056813;28;1893;-69
2022/06/07 00:25:21;;;;;;;;;;;20.00;68.90;;;;;;5056796;28;866;-69
2022/06/07 00:27:47;;;;;;;;;;;20.00;68.80;;;;;;5076261;28;1213;-69
2022/06/07 00:30:12;;;;;;;;;;;20.00;68.90;;;;;;5075174;28;1324;-71
2022/06/07 00:32:38;;;;;;;;;;;20.00;68.90;;;;;;5077004;28;1008;-71
2022/06/07 00:35:03;;;;;;;;;;;20.00;68.80;;;;;;5075208;28;1333;-71
2022/06/07 00:37:29;;;;;;;;;;;20.00;68.90;;;;;;5075455;28;912;-71
2022/06/07 00:39:54;;;;;;;;;;;20.00;68.80;;;;;;5074905;28;1198;-70
2022/06/07 00:42:19;;;;;;;;;;;20.00;68.80;;;;;;5076399;28;997;-70
2022/06/07 00:44:46;;;;;;;;;;;20.00;68.80;;;;;;5076318;28;1964;-71
2022/06/07 00:47:16;;;;;;;;;;;20.00;68.80;;;;;;5076390;28;905;-69
2022/06/07 00:49:52;;;;;;;;;;;20.00;68.80;;;;;;5075928;28;1192;-70
2022/06/07 00:52:18;;;;;;;;;;;20.00;68.80;;;;;;5076230;28;1069;-71
2022/06/07 00:54:43;;;;;;;;;;;20.00;68.90;;;;;;5075939;28;917;-71
2022/06/07 00:57:09;;;;;;;;;;;20.00;68.80;;;;;;5074867;28;902;-71
2022/06/07 00:59:34;;;;;;;;;;;20.00;68.80;;;;;;5076026;28;1157;-70
2022/06/07 01:02:00;;;;;;;;;;;20.00;68.80;;;;;;5074636;28;1437;-71
2022/06/07 01:04:27;;;;;;;;;;;20.00;68.90;;;;;;5074489;28;2006;-71
2022/06/07 01:12:21;;;;;;;;;;;20.00;68.90;;;;;;5055992;28;705;-71
2022/06/07 01:14:46;;;;;;;;;;;20.00;68.90;;;;;;5054585;28;1150;-71
2022/06/07 01:17:12;;;;;;;;;;;20.00;68.90;;;;;;5055885;28;854;-71
2022/06/07 01:19:38;;;;;;;;;;;20.00;68.90;;;;;;5054067;28;1335;-70
2022/06/07 01:22:03;;;;;;;;;;;20.00;68.90;;;;;;5054429;28;1064;-70
2022/06/07 01:24:28;;;;;;;;;;;20.00;68.90;;;;;;5055557;28;1953;-71
2022/06/07 01:26:54;;;;;;;;;;;20.00;68.90;;;;;;5068051;28;1178;-71
2022/06/07 01:29:19;;;;;;;;;;;20.00;68.90;;;;;;5074203;28;1325;-70
2022/06/07 01:31:46;;;;;;;;;;;20.00;68.90;;;;;;5075253;28;862;-71
2022/06/07 01:34:11;;;;;;;;;;;20.00;68.90;;;;;;5074122;28;1085;-69
2022/06/07 01:36:37;;;;;;;;;;;20.00;68.90;;;;;;5075491;28;763;-69
2022/06/07 01:41:55;;;;;;;;;;;20.00;68.90;;;;;;5074343;28;726;-69
2022/06/07 01:44:25;;;;;;;;;;;20.00;68.90;;;;;;5074185;28;1902;-68
2022/06/07 01:46:51;;;;;;;;;;;20.00;68.90;;;;;;5073937;28;906;-68
2022/06/07 01:49:16;;;;;;;;;;;20.00;68.90;;;;;;5073738;28;1203;-69
2022/06/07 01:51:42;;;;;;;;;;;20.00;68.90;;;;;;5073650;28;1226;-68
2022/06/07 01:54:08;;;;;;;;;;;20.00;68.90;;;;;;5075085;28;1132;-68
2022/06/07 01:56:34;;;;;;;;;;;20.00;69.70;;;;;;5074207;28;815;-68
2022/06/07 01:58:59;;;;;;;;;;;20.00;68.90;;;;;;5073943;28;1425;-67
2022/06/07 02:01:25;;;;;;;;;;;20.00;68.90;;;;;;5056920;28;1272;-70
2022/06/07 02:03:50;;;;;;;;;;;20.00;68.90;;;;;;5073711;28;1959;-68
2022/06/07 02:06:15;;;;;;;;;;;20.00;68.90;;;;;;5075006;28;1001;-68
2022/06/07 02:08:41;;;;;;;;;;;20.00;68.90;;;;;;5067340;28;1134;-69
2022/06/07 02:11:10;;;;;;;;;;;20.00;68.90;;;;;;5054767;28;1212;-68
2022/06/07 02:13:36;;;;;;;;;;;20.00;68.90;;;;;;5053783;28;819;-70
2022/06/07 02:16:02;;;;;;;;;;;20.00;68.90;;;;;;5053641;28;1287;-70
2022/06/07 02:18:27;;;;;;;;;;;20.00;68.90;;;;;;5054100;28;987;-70
2022/06/07 02:20:54;;;;;;;;;;;20.00;68.90;;;;;;5054623;28;1219;-71
2022/06/07 02:23:21;;;;;;;;;;;20.00;68.90;;;;;;5055120;28;1902;-70
2022/06/07 02:25:48;;;;;;;;;;;20.00;68.90;;;;;;5057016;28;1163;-69
2022/06/07 02:28:14;;;;;;;;;;;20.00;68.90;;;;;;5073738;28;1073;-69
2022/06/07 02:30:39;;;;;;;;;;;20.00;68.90;;;;;;5073801;28;1231;-69
2022/06/07 02:33:05;;;;;;;;;;;20.00;68.90;;;;;;5073375;28;1033;-69
2022/06/07 02:35:30;;;;;;;;;;;20.00;68.90;;;;;;5074619;28;838;-68
2022/06/07 02:37:56;;;;;;;;;;;20.00;68.90;;;;;;5073419;28;803;-69
2022/06/07 02:40:21;;;;;;;;;;;20.00;68.90;;;;;;5074575;28;1231;-68
2022/06/07 02:42:47;;;;;;;;;;;20.00;68.90;;;;;;5073638;28;950;-68
2022/06/07 02:45:12;;;;;;;;;;;20.00;68.90;;;;;;5073990;28;1886;-68
2022/06/07 02:47:38;;;;;;;;;;;20.00;69.00;;;;;;5074264;28;871;-69
2022/06/07 02:50:03;;;;;;;;;;;20.00;68.90;;;;;;5055855;28;1358;-69
2022/06/07 02:52:29;;;;;;;;;;;20.00;68.90;;;;;;5074168;28;764;-69
2022/06/07 02:54:54;;;;;;;;;;;20.00;69.00;;;;;;5073972;28;902;-69
2022/06/07 02:57:19;;;;;;;;;;;20.00;69.00;;;;;;5072756;28;895;-68
2022/06/07 02:59:45;;;;;;;;;;;20.00;69.00;;;;;;5073466;28;1188;-69
2022/06/07 03:02:10;;;;;;;;;;;20.00;68.90;;;;;;5073834;28;903;-68
2022/06/07 03:04:36;;;;;;;;;;;20.00;69.00;;;;;;5072335;28;1906;-69
2022/06/07 03:07:03;;;;;;;;;;;20.00;68.90;;;;;;5074200;28;799;-68
2022/06/07 03:09:28;;;;;;;;;;;20.00;69.00;;;;;;5059261;28;1504;-69
2022/06/07 03:11:56;;;;;;;;;;;20.00;69.00;;;;;;5053740;28;1016;-70
2022/06/07 03:14:21;;;;;;;;;;;20.00;69.00;;;;;;5053863;28;878;-71
2022/06/07 03:16:47;;;;;;;;;;;20.00;68.90;;;;;;5054391;28;823;-71
2022/06/07 03:19:12;;;;;;;;;;;20.00;68.90;;;;;;5052998;28;1351;-71
2022/06/07 03:21:39;;;;;;;;;;;20.00;69.00;;;;;;5054317;28;883;-69
2022/06/07 03:24:05;;;;;;;;;;;20.00;69.00;;;;;;5054011;28;1965;-68
2022/06/07 03:26:31;;;;;;;;;;;20.00;69.00;;;;;;5078457;28;1139;-68
2022/06/07 03:28:56;;;;;;;;;;;20.00;69.00;;;;;;5072290;28;800;-69
2022/06/07 03:31:22;;;;;;;;;;;20.00;69.00;;;;;;5072014;28;1180;-69
2022/06/07 03:33:48;;;;;;;;;;;20.00;69.00;;;;;;5073361;28;1068;-69
2022/06/07 03:36:14;;;;;;;;;;;20.00;69.00;;;;;;5055747;28;1361;-69
2022/06/07 03:38:40;;;;;;;;;;;20.00;69.00;;;;;;5072520;28;858;-68
2022/06/07 03:41:06;;;;;;;;;;;20.00;69.00;;;;;;5071681;28;1298;-68
2022/06/07 03:43:31;;;;;;;;;;;20.00;69.00;;;;;;5072942;28;1906;-68
2022/06/07 03:46:05;;;;;;;;;;;20.00;69.70;;;;;;5071761;28;966;-68
2022/06/07 03:48:30;;;;;;;;;;;20.00;69.00;;;;;;5071863;28;882;-68
2022/06/07 03:53:32;;;;;;;;;;;20.00;69.00;;;;;;5047851;28;1859;-71
2022/06/07 03:55:57;;;;;;;;;;;20.00;69.00;;;;;;5034816;28;1191;-70
2022/06/07 03:58:23;;;;;;;;;;;20.00;69.00;;;;;;5053101;28;795;-70
2022/06/07 04:00:48;;;;;;;;;;;20.00;69.00;;;;;;5052550;28;917;-70
2022/06/07 04:03:14;;;;;;;;;;;20.00;69.00;;;;;;5052720;28;1981;-70
2022/06/07 04:05:40;;;;;;;;;;;20.00;69.00;;;;;;5052861;28;804;-70
2022/06/07 04:08:12;;;;;;;;;;;20.00;69.00;;;;;;5035015;28;1118;-69
2022/06/07 04:10:43;;;;;;;;;;;20.00;69.00;;;;;;5052349;28;894;-71
2022/06/07 04:13:09;;;;;;;;;;;20.00;69.00;;;;;;5035030;28;1255;-70
2022/06/07 04:15:34;;;;;;;;;;;20.00;69.00;;;;;;5048190;28;2238;-69
2022/06/07 04:18:00;;;;;;;;;;;20.00;69.00;;;;;;5030337;28;1100;-70
2022/06/07 04:20:25;;;;;;;;;;;20.00;69.00;;;;;;5052696;28;1449;-70
2022/06/07 04:22:51;;;;;;;;;;;20.00;69.00;;;;;;5053060;28;1272;-70
2022/06/07 04:25:16;;;;;;;;;;;20.00;69.00;;;;;;5052373;28;1879;-70
2022/06/07 04:27:41;;;;;;;;;;;20.00;69.00;;;;;;5071574;28;1158;-70
2022/06/07 04:30:07;;;;;;;;;;;20.00;69.00;;;;;;5072358;28;803;-70
2022/06/07 04:32:33;;;;;;;;;;;20.00;69.00;;;;;;5072563;28;1192;-70
2022/06/07 04:34:59;;;;;;;;;;;20.00;69.00;;;;;;5054753;28;839;-70
2022/06/07 04:37:24;;;;;;;;;;;20.00;69.00;;;;;;5054845;28;861;-70
2022/06/07 04:39:50;;;;;;;;;;;20.00;69.00;;;;;;5072183;28;1001;-69
2022/06/07 04:42:16;;;;;;;;;;;20.00;69.00;;;;;;5072496;28;1211;-70
2022/06/07 04:44:41;;;;;;;;;;;20.00;69.00;;;;;;5072352;28;1894;-68
2022/06/07 04:47:06;;;;;;;;;;;20.00;69.00;;;;;;5053105;28;1640;-70
2022/06/07 04:49:32;;;;;;;;;;;20.00;69.00;;;;;;5052277;28;802;-72
2022/06/07 04:51:57;;;;;;;;;;;20.00;69.00;;;;;;5033872;28;1237;-72
2022/06/07 04:54:23;;;;;;;;;;;20.00;69.00;;;;;;5034369;28;868;-70
2022/06/07 04:56:48;;;;;;;;;;;19.90;69.00;;;;;;5052187;28;863;-71
2022/06/07 04:59:14;;;;;;;;;;;20.00;69.00;;;;;;5034401;28;1017;-70
2022/06/07 05:01:43;;;;;;;;;;;20.00;69.00;;;;;;5051963;28;1201;-71
2022/06/07 05:04:08;;;;;;;;;;;20.00;69.00;;;;;;5052259;28;1973;-71
2022/06/07 05:06:35;;;;;;;;;;;20.00;69.00;;;;;;5055299;28;828;-71
2022/06/07 05:09:01;;;;;;;;;;;20.00;69.00;;;;;;5055877;28;1175;-70
2022/06/07 05:11:27;;;;;;;;;;;20.00;69.00;;;;;;5055577;28;1302;-71
2022/06/07 05:13:54;;;;;;;;;;;20.00;69.10;;;;;;5055804;28;1017;-70
2022/06/07 05:16:20;;;;;;;;;;;19.90;69.00;;;;;;5038160;28;745;-69
2022/06/07 05:18:47;;;;;;;;;;;20.00;69.00;;;;;;5055955;28;1193;-71
2022/06/07 05:21:12;;;;;;;;;;;20.00;69.00;;;;;;5055256;28;1210;-69
2022/06/07 05:23:38;;;;;;;;;;;19.90;69.00;;;;;;5055684;28;1957;-69
2022/06/07 05:26:03;;;;;;;;;;;20.00;69.00;;;;;;5043199;28;1214;-70
2022/06/07 05:28:29;;;;;;;;;;;20.00;69.00;;;;;;5057636;28;1373;-70
2022/06/07 05:30:54;;;;;;;;;;;19.90;69.00;;;;;;5058169;28;851;-71
2022/06/07 05:33:20;;;;;;;;;;;20.00;69.00;;;;;;5075463;28;1298;-70
2022/06/07 05:35:45;;;;;;;;;;;20.00;69.10;;;;;;5057561;28;1226;-70
2022/06/07 05:38:11;;;;;;;;;;;20.00;69.10;;;;;;5075342;28;1056;-70
2022/06/07 05:40:36;;;;;;;;;;;20.00;69.00;;;;;;5057341;28;1466;-70
2022/06/07 05:43:03;;;;;;;;;;;19.90;68.90;;;;;;5057245;28;1893;-70
2022/06/07 05:45:30;;;;;;;;;;;20.00;68.90;;;;;;5058664;28;882;-70
2022/06/07 05:47:56;;;;;;;;;;;19.90;68.70;;;;;;5075891;28;867;-70
2022/06/07 05:50:21;;;;;;;;;;;19.90;68.60;;;;;;5080645;28;922;-68
2022/06/07 05:52:49;;;;;;;;;;;19.90;68.60;;;;;;5066528;28;1208;-70
2022/06/07 05:55:14;;;;;;;;;;;19.90;68.60;;;;;;5057252;28;985;-71
2022/06/07 05:57:40;;;;;;;;;;;19.90;68.60;;;;;;5077096;28;1060;-69
2022/06/07 06:00:06;;;;;;;;;;;19.90;68.50;;;;;;5074814;28;859;-70
2022/06/07 06:02:31;;;;;;;;;;;19.90;68.50;;;;;;5075120;28;1260;-70
2022/06/07 06:04:57;;;;;;;;;;;19.90;68.40;;;;;;5074893;28;1910;-70
2022/06/07 06:07:22;;;;;;;;;;;19.90;68.30;;;;;;5074689;28;926;-69
2022/06/07 06:12:33;;;;;;;;;;;19.90;68.30;;;;;;5039553;28;1255;-70
2022/06/07 06:14:58;;;;;;;;;;;19.90;68.40;;;;;;5054838;28;866;-70
2022/06/07 06:17:24;;;;;;;;;;;19.90;68.30;;;;;;5054129;28;990;-70
2022/06/07 06:19:49;;;;;;;;;;;19.90;68.30;;;;;;5054404;28;1222;-69
2022/06/07 06:22:14;;;;;;;;;;;19.90;68.30;;;;;;5054644;28;1200;-70
2022/06/07 06:24:40;;;;;;;;;;;19.90;68.40;;;;;;5054508;28;1902;-70
2022/06/07 06:27:06;;;;;;;;;;;19.90;68.30;;;;;;5068295;28;1139;-69
2022/06/07 06:29:31;;;;;;;;;;;19.90;68.40;;;;;;5074508;28;799;-69
2022/06/07 06:31:56;;;;;;;;;;;19.90;68.40;;;;;;5074282;28;1261;-70
2022/06/07 06:34:23;;;;;;;;;;;19.90;68.30;;;;;;5074211;28;736;-69
2022/06/07 06:36:48;;;;;;;;;;;19.90;68.30;;;;;;5074475;28;854;-70
2022/06/07 06:39:14;;;;;;;;;;;19.90;68.20;;;;;;5056526;28;824;-70
2022/06/07 06:41:43;;;;;;;;;;;19.90;68.10;;;;;;5073849;28;1192;-70
2022/06/07 06:44:09;;;;;;;;;;;19.90;68.20;;;;;;5074237;28;1969;-71
2022/06/07 06:46:35;;;;;;;;;;;19.90;68.10;;;;;;5056283;28;867;-71
2022/06/07 06:49:00;;;;;;;;;;;19.90;68.00;;;;;;5056227;28;1010;-69
2022/06/07 06:51:26;;;;;;;;;;;19.90;67.90;;;;;;5055816;28;1306;-68
2022/06/07 06:53:52;;;;;;;;;;;19.90;67.80;;;;;;5059365;28;2180;-68
2022/06/07 06:56:20;;;;;;;;;;;19.90;67.80;;;;;;5036018;28;1127;-70
2022/06/07 06:58:45;;;;;;;;;;;19.90;67.90;;;;;;5044239;28;1104;-70
2022/06/07 07:01:15;;;;;;;;;;;19.90;67.80;;;;;;5034125;28;1938;-70
2022/06/07 07:03:40;;;;;;;;;;;19.90;67.80;;;;;;5054827;28;1969;-69
2022/06/07 07:06:07;;;;;;;;;;;19.90;67.80;;;;;;5049819;28;1228;-70
2022/06/07 07:08:33;;;;;;;;;;;19.90;67.80;;;;;;5049187;28;1852;-70
2022/06/07 07:11:09;;;;;;;;;;;19.90;67.80;;;;;;5059928;28;884;-70
2022/06/07 07:13:35;;;;;;;;;;;19.90;67.80;;;;;;5053996;28;1989;-68
2022/06/07 07:16:22;;;;;;;;;;;19.90;67.80;;;;;;5080549;28;1209;-70
2022/06/07 07:18:48;;;;;;;;;;;20.00;68.50;;;;;;5061284;28;1158;-69
2022/06/07 07:27:25;;;;;;;;;;;20.20;69.10;;;;;;5089991;28;1270;-70
2022/06/07 07:29:59;;;;;;;;;;;20.30;68.90;;;;;;5080207;28;894;-68
2022/06/07 07:32:50;;;;;;;;;;;20.30;68.80;;;;;;5057516;28;1181;-66
2022/06/07 07:35:21;;;;;;;;;;;20.40;68.90;;;;;;5056261;28;956;-66
2022/06/07 07:37:51;;;;;;;;;;;20.40;68.90;;;;;;5053133;28;1539;-67
2022/06/07 07:40:17;;;;;;;;;;;20.40;69.00;;;;;;5054414;28;1140;-71
2022/06/07 07:42:42;;;;;;;;;;;20.40;69.10;;;;;;5060389;28;1209;-70
2022/06/07 07:45:08;;;;;;;;;;;20.40;69.10;;;;;;5058337;28;1934;-71
2022/06/07 07:50:37;;;;;;;;;;;20.40;69.20;;;;;;5057531;28;636;-68
2022/06/07 07:53:03;;;;;;;;;;;20.40;69.10;;;;;;5026477;28;1244;-71
2022/06/07 07:55:29;;;;;;;;;;;20.40;69.30;;;;;;5041258;28;1057;-70
2022/06/07 07:57:54;;;;;;;;;;;20.40;69.40;;;;;;5032537;28;905;-72
2022/06/07 08:00:20;;;;;;;;;;;20.40;69.50;;;;;;5029467;28;804;-71
2022/06/07 08:02:45;;;;;;;;;;;20.40;69.60;;;;;;5032313;28;1235;-69
2022/06/07 08:05:11;;;;;;;;;;;20.40;69.70;;;;;;5014089;28;1949;-70
2022/06/07 08:07:36;;;;;;;;;;;20.40;69.90;;;;;;5021584;28;1010;-72
2022/06/07 08:10:02;;;;;;;;;;;20.40;70.10;;;;;;5038448;28;1226;-71
2022/06/07 08:12:28;;;;;;;;;;;20.40;70.40;;;;;;5040578;28;1287;-72
2022/06/07 08:14:53;;;;;;;;;;;20.40;70.60;;;;;;5042005;28;1228;-71
2022/06/07 08:17:18;;;;;;;;;;;20.40;70.80;;;;;;5045649;28;1033;-72
2022/06/07 08:19:44;;;;;;;;;;;20.40;70.90;;;;;;5024640;28;2249;-69
2022/06/07 08:22:10;;;;;;;;;;;20.40;71.10;;;;;;5052972;28;1525;-68
2022/06/07 08:24:36;;;;;;;;;;;20.40;71.40;;;;;;5057216;28;1895;-71
2022/06/07 08:27:02;;;;;;;;;;;20.40;71.50;;;;;;5060722;28;1385;-71
2022/06/07 08:29:27;;;;;;;;;;;20.40;71.70;;;;;;5044339;28;1549;-72
2022/06/07 08:31:53;;;;;;;;;;;20.40;71.90;;;;;;5057892;28;1267;-72
2022/06/07 08:39:47;;;;;;;;;;;20.40;72.30;;;;;;5055997;28;704;-71
2022/06/07 08:42:14;;;;;;;;;;;20.40;72.40;;;;;;5066818;28;1215;-70
2022/06/07 08:44:40;;;;;;;;;;;20.50;73.20;;;;;;5045074;28;1926;-69
2022/06/07 08:47:07;;;;;;;;;;;20.40;73.00;;;;;;5043251;28;1169;-70
2022/06/07 08:49:33;;;;;;;;;;;20.40;73.00;;;;;;5036399;28;1121;-69
2022/06/07 08:52:04;;;;;;;;;;;20.40;73.10;;;;;;5036877;28;1348;-71
2022/06/07 08:54:31;;;;;;;;;;;20.40;73.10;;;;;;5039619;28;2227;-68
2022/06/07 08:57:00;;;;;;;;;;;20.40;73.20;;;;;;5063951;28;1457;-72
2022/06/07 08:59:26;;;;;;;;;;;20.40;73.10;;;;;;5050366;28;998;-71
2022/06/07 09:01:57;;;;;;;;;;;20.40;73.30;;;;;;5059067;28;1326;-71
2022/06/07 09:04:25;;;;;;;;;;;20.50;73.70;;;;;;5064078;28;1871;-72
2022/06/07 09:06:51;;;;;;;;;;;20.50;73.70;;;;;;5062073;28;736;-71
2022/06/07 09:09:18;;;;;;;;;;;20.50;73.40;;;;;;5058350;28;1505;-71
2022/06/07 09:14:47;;;;;;;;;;;20.50;73.10;;;;;;5040885;28;829;-70
2022/06/07 09:17:32;;;;;;;;;;;20.50;73.00;;;;;;5038146;28;824;-70
2022/06/07 09:19:57;;;;;;;;;;;20.50;72.90;;;;;;5055994;28;1450;-70
2022/06/07 09:22:37;;;;;;;;;;;20.50;73.00;;;;;;5055727;28;1189;-70
2022/06/07 09:25:07;;;;;;;;;;;20.50;73.00;;;;;;5037795;28;1962;-69
2022/06/07 09:27:33;;;;;;;;;;;20.50;72.90;;;;;;5021355;28;1576;-69
2022/06/07 09:30:19;;;;;;;;;;;20.50;72.90;;;;;;5057346;28;949;-70
2022/06/07 09:32:45;;;;;;;;;;;20.50;72.90;;;;;;5059313;28;1257;-72
2022/06/07 09:35:29;;;;;;;;;;;20.50;72.90;;;;;;5033396;28;2268;-71
2022/06/07 09:37:56;;;;;;;;;;;20.50;72.90;;;;;;5062293;28;2413;-70
2022/06/07 09:40:24;;;;;;;;;;;20.50;72.90;;;;;;5025084;28;1685;-70
2022/06/07 09:43:03;;;;;;;;;;;20.50;73.20;;;;;;5053748;28;1574;-69
2022/06/07 09:45:39;;;;;;;;;;;20.50;73.30;;;;;;5054794;28;863;-71
2022/06/07 09:48:43;;;;;;;;;;;20.50;73.40;;;;;;5036928;28;894;-71
2022/06/07 09:51:12;;;;;;;;;;;20.50;73.50;;;;;;4973329;28;1305;-70
2022/06/07 09:56:16;;;;;;;;;;;20.50;73.60;;;;;;5020299;28;2424;-72
2022/06/07 09:58:54;;;;;;;;;;;20.50;75.00;;;;;;5033047;28;1127;-72
2022/06/07 10:01:29;;;;;;;;;;;20.50;75.00;;;;;;5029613;28;1462;-70
2022/06/07 10:04:04;;;;;;;;;;;20.60;74.80;;;;;;5019918;28;2229;-72
2022/06/07 10:06:31;;;;;;;;;;;20.60;74.50;;;;;;4989392;28;1158;-72
2022/06/07 10:08:56;;;;;;;;;;;20.60;74.40;;;;;;5006407;28;1163;-71
2022/06/07 10:11:27;;;;;;;;;;;20.60;74.40;;;;;;4995229;28;858;-72
2022/06/07 10:14:02;;;;;;;;;;;20.60;74.10;;;;;;4995278;28;1303;-72
2022/06/07 10:16:30;;;;;;;;;;;20.60;73.90;;;;;;4995448;28;887;-71
2022/06/07 10:18:55;;;;;;;;;;;20.60;73.90;;;;;;5004349;28;1116;-72
2022/06/07 10:21:24;;;;;;;;;;;20.60;73.60;;;;;;5029657;28;1208;-72
2022/06/07 10:23:54;;;;;;;;;;;20.50;73.50;;;;;;5013369;28;1890;-71
2022/06/07 10:26:22;;;;;;;;;;;20.50;73.50;;;;;;5006318;28;1221;-71
2022/06/07 10:29:00;;;;;;;;;;;20.50;73.60;;;;;;4995181;28;883;-71
2022/06/07 10:31:40;;;;;;;;;;;20.50;73.70;;;;;;4994941;28;983;-71
2022/06/07 10:34:07;;;;;;;;;;;20.60;73.70;;;;;;4995153;28;1205;-71
2022/06/07 10:36:37;;;;;;;;;;;20.60;73.50;;;;;;4993901;28;733;-71
2022/06/07 10:39:08;;;;;;;;;;;20.60;73.50;;;;;;5010362;28;1692;-71
2022/06/07 10:42:12;;;;;;;;;;;20.60;73.40;;;;;;5021742;28;1044;-71
2022/06/07 10:44:39;;;;;;;;;;;20.60;73.40;;;;;;4959515;28;1907;-71
2022/06/07 10:47:23;;;;;;;;;;;20.60;73.30;;;;;;4943466;29;2019;-70
2022/06/07 10:50:12;;;;;;;;;;;20.60;73.30;;;;;;4989856;28;1799;-72
2022/06/07 10:52:41;;;;;;;;;;;20.60;73.20;;;;;;5014173;28;1556;-70
2022/06/07 10:55:28;;;;;;;;;;;20.60;73.10;;;;;;5011956;28;1152;-70
2022/06/07 10:57:57;;;;;;;;;;;20.60;73.20;;;;;;5012824;28;926;-74
2022/06/07 11:00:41;;;;;;;;;;;20.60;73.20;;;;;;5012728;28;832;-72
2022/06/07 11:03:13;;;;;;;;;;;20.60;73.20;;;;;;5011175;28;1910;-71
2022/06/07 11:11:20;;;;;;;;;;;20.60;73.20;;;;;;5013643;28;618;-68
2022/06/07 11:13:46;;;;;;;;;;;20.60;73.20;;;;;;5012647;28;1478;-69
2022/06/07 11:16:41;;;;;;;;;;;20.50;73.10;;;;;;5014020;28;807;-67
2022/06/07 11:19:07;;;;;;;;;;;20.50;73.10;;;;;;4977302;28;1260;-68
2022/06/07 11:21:34;;;;;;;;;;;20.50;73.00;;;;;;4995809;28;1178;-70
2022/06/07 11:24:02;;;;;;;;;;;20.50;73.00;;;;;;5012233;28;1949;-69
2022/06/07 11:26:34;;;;;;;;;;;20.50;73.10;;;;;;5005215;28;1198;-69
2022/06/07 11:29:00;;;;;;;;;;;20.50;73.20;;;;;;4992795;28;1628;-70
2022/06/07 11:31:28;;;;;;;;;;;20.50;73.20;;;;;;4996488;28;1880;-70
2022/06/07 11:33:54;;;;;;;;;;;20.50;73.30;;;;;;5007718;28;1932;-68
2022/06/07 11:36:25;;;;;;;;;;;20.50;73.50;;;;;;5006266;28;1263;-70
2022/06/07 11:38:54;;;;;;;;;;;20.50;73.60;;;;;;5008805;28;1042;-68
2022/06/07 11:41:38;;;;;;;;;;;20.50;73.60;;;;;;5008850;28;1072;-69
2022/06/07 11:44:04;;;;;;;;;;;20.50;73.70;;;;;;5008195;28;1975;-71
2022/06/07 11:46:33;;;;;;;;;;;20.50;75.10;;;;;;5008212;28;2101;-70
2022/06/07 11:49:00;;;;;;;;;;;20.60;75.90;;;;;;5004500;28;1589;-70
2022/06/07 11:51:25;;;;;;;;;;;20.60;75.40;;;;;;4995912;28;1108;-69
2022/06/07 11:53:52;;;;;;;;;;;20.60;75.10;;;;;;5003439;28;1341;-70
2022/06/07 11:56:27;;;;;;;;;;;20.60;75.00;;;;;;5013351;28;969;-70
2022/06/07 11:58:56;;;;;;;;;;;20.60;74.90;;;;;;5012134;28;811;-70
2022/06/07 12:01:23;;;;;;;;;;;20.60;74.90;;;;;;5011740;28;832;-71
2022/06/07 12:03:51;;;;;;;;;;;20.60;75.40;;;;;;5011902;28;1976;-69
2022/06/07 12:06:18;;;;;;;;;;;20.60;75.50;;;;;;5011890;28;1258;-70
2022/06/07 12:08:51;;;;;;;;;;;20.60;75.50;;;;;;5005239;28;1171;-70
2022/06/07 12:11:23;;;;;;;;;;;20.70;75.40;;;;;;4993451;28;1017;-70
2022/06/07 12:14:12;;;;;;;;;;;20.70;75.50;;;;;;4993342;28;1296;-71
2022/06/07 12:16:39;;;;;;;;;;;20.70;75.40;;;;;;4962278;28;2237;-71
2022/06/07 12:19:24;;;;;;;;;;;20.60;75.10;;;;;;4992125;28;1147;-69
2022/06/07 12:22:11;;;;;;;;;;;20.60;75.10;;;;;;5007515;28;1291;-73
2022/06/07 12:24:42;;;;;;;;;;;20.60;75.00;;;;;;5015811;28;1910;-73
2022/06/07 12:27:27;;;;;;;;;;;20.60;75.00;;;;;;4996441;28;1188;-71
2022/06/07 12:29:54;;;;;;;;;;;20.60;75.00;;;;;;5000592;28;1058;-72
2022/06/07 12:32:31;;;;;;;;;;;20.60;74.90;;;;;;5007572;28;1095;-72
2022/06/07 12:35:03;;;;;;;;;;;20.60;74.90;;;;;;5017368;28;1284;-71
2022/06/07 12:37:28;;;;;;;;;;;20.60;74.80;;;;;;5015797;28;808;-72
2022/06/07 12:39:56;;;;;;;;;;;20.60;75.00;;;;;;5015412;28;895;-72
2022/06/07 12:42:22;;;;;;;;;;;20.60;75.00;;;;;;5015458;28;828;-73
2022/06/07 12:44:51;;;;;;;;;;;20.60;75.00;;;;;;5015391;28;1907;-70
2022/06/07 12:47:36;;;;;;;;;;;20.60;75.00;;;;;;5005695;28;1805;-68
2022/06/07 12:50:02;;;;;;;;;;;20.60;75.00;;;;;;5012284;28;899;-70
2022/06/07 12:52:28;;;;;;;;;;;20.60;74.90;;;;;;5015264;28;1084;-69
2022/06/07 12:54:54;;;;;;;;;;;20.60;74.90;;;;;;5013084;28;1256;-69
2022/06/07 12:57:30;;;;;;;;;;;20.60;75.10;;;;;;4997731;28;1467;-69
2022/06/07 13:00:00;;;;;;;;;;;20.70;75.70;;;;;;5014048;28;974;-69
2022/06/07 13:02:37;;;;;;;;;;;20.70;75.70;;;;;;5013492;28;2245;-69
2022/06/07 13:05:10;;;;;;;;;;;20.70;75.60;;;;;;5013857;28;1906;-70
2022/06/07 13:07:45;;;;;;;;;;;20.80;75.50;;;;;;5015501;28;725;-70
2022/06/07 13:10:12;;;;;;;;;;;20.80;75.30;;;;;;4994202;28;1322;-69
2022/06/07 13:12:42;;;;;;;;;;;20.80;75.10;;;;;;4995799;28;954;-68
2022/06/07 13:15:12;;;;;;;;;;;20.80;75.00;;;;;;4994724;28;1207;-69
2022/06/07 13:17:38;;;;;;;;;;;20.90;75.00;;;;;;4994232;28;1631;-68
2022/06/07 13:20:05;;;;;;;;;;;20.90;74.80;;;;;;5006771;28;1703;-68
2022/06/07 13:22:32;;;;;;;;;;;20.90;74.60;;;;;;5014208;28;1193;-67
2022/06/07 13:25:17;;;;;;;;;;;20.80;74.00;;;;;;5013108;28;1902;-68
2022/06/07 13:28:06;;;;;;;;;;;20.90;73.90;;;;;;4995694;28;1139;-68
2022/06/07 13:30:31;;;;;;;;;;;20.80;73.80;;;;;;4989523;28;990;-69
2022/06/07 13:33:01;;;;;;;;;;;20.80;73.80;;;;;;5008835;28;2233;-68
2022/06/07 13:35:29;;;;;;;;;;;20.80;73.90;;;;;;5011970;28;1405;-69
2022/06/07 13:38:18;;;;;;;;;;;20.80;74.00;;;;;;5010659;28;1209;-69
2022/06/07 13:40:43;;;;;;;;;;;20.80;74.20;;;;;;4986343;28;1202;-69
2022/06/07 13:43:12;;;;;;;;;;;20.80;74.20;;;;;;5014422;28;878;-69
2022/06/07 13:45:44;;;;;;;;;;;20.70;74.20;;;;;;5015203;28;1267;-68
2022/06/07 13:48:14;;;;;;;;;;;20.80;74.30;;;;;;5014195;28;1198;-68
2022/06/07 13:53:41;;;;;;;;;;;20.70;74.40;;;;;;5014757;28;691;-69
2022/06/07 13:56:08;;;;;;;;;;;20.70;74.40;;;;;;5014163;28;1269;-69
2022/06/07 13:58:34;;;;;;;;;;;20.70;74.60;;;;;;5015428;28;844;-69
2022/06/07 14:01:03;;;;;;;;;;;20.70;74.60;;;;;;5013790;28;963;-70
2022/06/07 14:03:28;;;;;;;;;;;20.70;74.90;;;;;;5015005;28;1906;-69
2022/06/07 14:05:54;;;;;;;;;;;20.70;75.00;;;;;;5015337;28;1210;-70
2022/06/07 14:08:19;;;;;;;;;;;20.70;75.30;;;;;;5012414;28;983;-70
2022/06/07 14:10:44;;;;;;;;;;;20.70;75.20;;;;;;5015012;28;767;-69
2022/06/07 14:13:10;;;;;;;;;;;20.70;75.50;;;;;;5013822;28;832;-70
2022/06/07 14:15:36;;;;;;;;;;;20.70;75.40;;;;;;5015148;28;1172;-71
2022/06/07 14:18:06;;;;;;;;;;;20.70;75.10;;;;;;5012017;28;1108;-70
2022/06/07 14:20:33;;;;;;;;;;;20.80;75.10;;;;;;4994070;28;843;-70
2022/06/07 14:22:58;;;;;;;;;;;20.70;75.00;;;;;;4994018;28;915;-70
2022/06/07 14:25:24;;;;;;;;;;;20.80;75.30;;;;;;4995124;28;1882;-70
2022/06/07 14:27:50;;;;;;;;;;;20.80;75.30;;;;;;5014753;28;1295;-70
2022/06/07 14:30:15;;;;;;;;;;;20.80;75.40;;;;;;5013281;28;804;-70
2022/06/07 14:32:42;;;;;;;;;;;20.80;75.10;;;;;;5014826;28;934;-70
2022/06/07 14:35:20;;;;;;;;;;;20.80;74.90;;;;;;5013584;28;1214;-70
2022/06/07 14:37:46;;;;;;;;;;;20.80;74.80;;;;;;5012630;28;838;-70
2022/06/07 14:40:14;;;;;;;;;;;20.80;74.70;;;;;;5013195;28;823;-70
2022/06/07 14:42:42;;;;;;;;;;;20.80;74.60;;;;;;5014619;28;942;-71
2022/06/07 14:45:09;;;;;;;;;;;20.80;74.50;;;;;;5014453;28;1953;-70
2022/06/07 14:47:34;;;;;;;;;;;20.80;74.70;;;;;;5013197;28;876;-70
2022/06/07 14:50:00;;;;;;;;;;;20.70;74.60;;;;;;5013980;28;836;-70
2022/06/07 14:52:25;;;;;;;;;;;20.70;74.70;;;;;;5013287;28;940;-71
2022/06/07 14:54:51;;;;;;;;;;;20.70;74.60;;;;;;5014126;28;1209;-70
2022/06/07 14:57:16;;;;;;;;;;;20.70;74.70;;;;;;5014386;28;820;-70
2022/06/07 14:59:42;;;;;;;;;;;20.70;74.70;;;;;;5010510;28;2113;-70
2022/06/07 15:02:11;;;;;;;;;;;20.70;74.60;;;;;;5022553;28;1154;-70
2022/06/07 15:04:40;;;;;;;;;;;20.70;75.40;;;;;;5024255;28;1910;-70
2022/06/07 15:07:25;;;;;;;;;;;20.70;74.60;;;;;;5018482;28;1580;-69
2022/06/07 15:09:51;;;;;;;;;;;20.80;74.90;;;;;;5012512;28;1128;-70
2022/06/07 15:12:17;;;;;;;;;;;20.80;74.90;;;;;;5012690;28;879;-69
2022/06/07 15:14:43;;;;;;;;;;;20.70;74.80;;;;;;5012710;28;1222;-69
2022/06/07 15:17:09;;;;;;;;;;;20.70;74.80;;;;;;5012527;28;1017;-71
2022/06/07 15:19:34;;;;;;;;;;;20.70;74.90;;;;;;4998165;28;1623;-69
2022/06/07 15:22:00;;;;;;;;;;;20.70;74.90;;;;;;4992766;28;805;-68